Flight Track Log - Related Links

Times and Time Zones

All times are in EDT time to prevent confusion due to time zone crossing. See the BWA10 flight status page for this flight to view local times or setup timezone preferences in your user account.

Time Position Orientation Groundspeed Altitude Reporting Facility
EDT Latitude Longitude Course Direction KTS MPH feet Rate Location/Type
Wed 05:54:14 AM 40.5719 -73.7519 146° Southeast 174 200 3,100  Level New York Center
Wed 05:55:14 AM 40.5172 -73.6975 143° Southeast 221 254 5,500 2,300 Climbing New York Center
Wed 05:56:14 AM 40.4622 -73.6381 141° Southeast 265 305 7,700 2,600 Climbing New York Center
Wed 05:57:00 AM 40.1897 -73.3445 146° Southeast  Level FlightAware Approximate
Wed 05:57:14 AM 40.3972 -73.5697 141° Southeast 280 322 10,700  Level New York Center
Wed 05:58:00 AM 40.0965 -73.2617 146° Southeast  Level FlightAware Approximate
Wed 05:58:14 AM 40.3278 -73.5072 146° Southeast 312 359 11,900  Level New York Center
Wed 05:59:14 AM 40.2233 -73.5275 188° South 324 373 14,800 2,700 Climbing New York Center
Wed 06:00:14 AM 40.1331 -73.5564 194° South 361 415 17,300 2,453 Climbing New York Center
Wed 06:01:53 AM 39.9533 -73.6158 194° South 394 453 21,300 2,354 Climbing Washington Center
Wed 06:02:52 AM 39.8567 -73.6833 208° Southwest 394 453 23,500 2,200 Climbing Washington Center
Wed 06:03:53 AM 39.7578 -73.7589 210° Southwest 399 459 25,700 2,000 Climbing Washington Center
Wed 06:04:55 AM 39.6611 -73.8342 211° Southwest 410 472 27,600 1,736 Climbing Washington Center
Wed 06:05:54 AM 39.5600 -73.9092 210° Southwest 415 478 29,200 1,450 Climbing Washington Center
Wed 06:06:55 AM 39.4589 -73.9894 212° Southwest 422 486 30,500 1,513 Climbing Washington Center
Wed 06:07:53 AM 39.3578 -74.0669 211° Southwest 428 493 32,200 1,714 Climbing Washington Center
Wed 06:08:54 AM 39.2567 -74.1442 211° Southwest 428 493 33,900 1,613 Climbing Washington Center
Wed 06:09:52 AM 39.1719 -74.2100 211° Southwest 422 486 35,400 1,563 Climbing Washington Center
Wed 06:10:53 AM 39.0769 -74.2814 210° Southwest 409 471 37,000 1,279 Climbing Washington Center
Wed 06:11:54 AM 38.9839 -74.3500 210° Southwest 395 455 38,000 492 Climbing Washington Center
Wed 06:12:55 AM 38.8908 -74.4236 212° Southwest 395 455 38,000  Level Washington Center
Wed 06:13:52 AM 38.7978 -74.4917 210° Southwest 395 455 38,000  Level Washington Center
Wed 06:14:55 AM 38.7067 -74.5622 211° Southwest 395 455 38,000  Level Washington Center
Wed 06:15:53 AM 38.6133 -74.6325 210° Southwest 395 455 38,000  Level Washington Center
Wed 06:16:54 AM 38.5200 -74.7028 211° Southwest 390 449 38,000  Level Washington Center
Wed 06:17:54 AM 38.4267 -74.7700 209° Southwest 395 455 38,000  Level Washington Center
Wed 06:18:55 AM 38.3353 -74.8294 207° Southwest 395 455 38,000  Level Washington Center
Wed 06:19:55 AM 38.2336 -74.9150 213° Southwest 395 455 38,000  Level Washington Center
Wed 06:20:53 AM 38.1403 -74.9819 209° Southwest 395 455 38,000  Level Washington Center
Wed 06:21:54 AM 38.0467 -75.0458 208° Southwest 395 455 38,000  Level Washington Center
Wed 06:22:53 AM 37.9531 -75.1125 209° Southwest 395 455 38,000  Level Washington Center
Wed 06:23:53 AM 37.8617 -75.1789 210° Southwest 395 455 38,000  Level Washington Center
Wed 06:24:53 AM 37.7681 -75.2503 211° Southwest 395 455 38,000  Level Washington Center
Wed 06:25:53 AM 37.6744 -75.3189 210° Southwest 395 455 38,000  Level Washington Center
Wed 06:26:53 AM 37.5806 -75.3847 209° Southwest 395 455 38,000  Level Washington Center
Wed 06:27:53 AM 37.4847 -75.4558 210° Southwest 395 455 38,000  Level Washington Center
Wed 06:28:53 AM 37.3889 -75.5214 209° Southwest 400 460 38,000  Level Washington Center
Wed 06:29:55 AM 37.2972 -75.5892 210° Southwest 400 460 38,000  Level Washington Center
Wed 06:30:53 AM 37.2011 -75.6569 209° Southwest 400 460 38,000  Level Washington Center
Wed 06:31:55 AM 37.1072 -75.7222 209° Southwest 395 455 38,000  Level Washington Center
Wed 06:32:53 AM 37.0153 -75.7869 209° Southwest 395 455 38,000  Level Washington Center
Wed 06:33:53 AM 36.9236 -75.8492 208° Southwest 400 460 38,000  Level Washington Center
Wed 06:34:55 AM 36.8294 -75.9136 209° Southwest 400 460 38,000  Level Washington Center
Wed 06:35:53 AM 36.7333 -75.9806 209° Southwest 395 455 38,000  Level Washington Center
Wed 06:36:54 AM 36.6392 -76.0475 210° Southwest 402 463 38,000  Level Washington Center
Wed 06:37:52 AM 36.5472 -76.1142 210° Southwest 396 456 38,000  Level Washington Center
Wed 06:38:53 AM 36.4508 -76.1808 209° Southwest 391 450 38,000  Level Washington Center
Wed 06:39:52 AM 36.3544 -76.2469 209° Southwest 391 450 38,000  Level Washington Center
Wed 06:40:52 AM 36.2603 -76.3133 210° Southwest 396 456 38,000  Level Washington Center
Wed 06:41:53 AM 36.1661 -76.3767 209° Southwest 396 456 38,000  Level Washington Center
Wed 06:42:55 AM 36.0694 -76.4425 209° Southwest 396 456 38,000  Level Washington Center
Wed 06:43:54 AM 35.9753 -76.5058 209° Southwest 396 456 38,000  Level Washington Center
Wed 06:44:54 AM 35.8786 -76.5739 210° Southwest 396 456 38,000  Level Washington Center
Wed 06:45:52 AM 35.7800 -76.6392 208° Southwest 396 456 38,000  Level Washington Center
Wed 06:46:53 AM 35.6733 -76.6864 200° South 396 456 38,000  Level Washington Center
Wed 06:47:52 AM 35.5561 -76.7156 191° South 416 479 38,000  Level Washington Center
Wed 06:48:53 AM 35.4411 -76.7494 194° South 421 484 38,000  Level Washington Center
Wed 06:49:55 AM 35.3281 -76.7836 194° South 421 484 38,000  Level Washington Center
Wed 06:50:53 AM 35.2131 -76.8150 193° South 421 484 38,000  Level Washington Center
Wed 06:51:52 AM 35.0853 -76.8536 194° South 426 490 38,000  Level Washington Center
Wed 06:52:53 AM 34.9703 -76.8872 193° South 431 496 38,000  Level Washington Center
Wed 06:53:53 AM 34.8508 -76.9183 192° South 431 496 38,000  Level Washington Center
Wed 06:54:53 AM 34.7336 -76.9492 192° South 431 496 38,000  Level Washington Center
Wed 06:55:54 AM 34.6164 -76.9825 193° South 431 496 38,000  Level Washington Center
Wed 06:56:55 AM 34.4992 -77.0158 193° South 431 496 38,000  Level Washington Center
Wed 06:57:53 AM 34.3800 -77.0492 193° South 431 496 38,000  Level Washington Center
Wed 07:00:14 AM 34.1236 -77.1183 193° South 433 498 38,000  Level Jacksonville Center
Wed 07:01:14 AM 33.9939 -77.1547 193° South 433 498 38,000  Level Jacksonville Center
Wed 07:02:14 AM 33.8742 -77.1875 193° South 433 498 38,000  Level Jacksonville Center
Wed 07:03:14 AM 33.7567 -77.2175 192° South 439 505 38,000  Level Jacksonville Center
Wed 07:04:14 AM 33.6372 -77.2503 193° South 439 505 38,000  Level Jacksonville Center
Wed 07:05:14 AM 33.5178 -77.2853 194° South 444 511 38,000  Level Jacksonville Center
Wed 07:06:14 AM 33.4000 -77.3150 192° South 444 511 38,000  Level Jacksonville Center
Wed 07:07:14 AM 33.2806 -77.3497 194° South 444 511 38,000  Level Jacksonville Center
Wed 07:08:14 AM 33.1611 -77.3819 193° South 449 517 38,000  Level Jacksonville Center
Wed 07:09:14 AM 33.0433 -77.4117 192° South 449 517 38,000  Level Jacksonville Center
Wed 07:10:14 AM 32.9236 -77.4436 193° South 449 517 38,000  Level Jacksonville Center
Wed 07:11:14 AM 32.8019 -77.4758 193° South 449 517 38,000  Level Jacksonville Center
Wed 07:12:14 AM 32.6822 -77.5075 193° South 449 517 38,000  Level Jacksonville Center
Wed 07:13:14 AM 32.5647 -77.5392 193° South 449 517 38,000  Level Jacksonville Center
Wed 07:14:14 AM 32.4453 -77.5758 195° South 444 511 38,000  Level Jacksonville Center
Wed 07:15:14 AM 32.3253 -77.6047 191° South 444 511 38,000  Level Jacksonville Center
Wed 07:16:14 AM 32.2078 -77.6361 193° South 444 511 38,000  Level Jacksonville Center
Wed 07:17:14 AM 32.0878 -77.6628 191° South 449 517 38,000  Level Jacksonville Center
Wed 07:18:14 AM 31.9681 -77.6939 192° South 449 517 38,000  Level Jacksonville Center
Wed 07:19:14 AM 31.8464 -77.7303 194° South 449 517 38,000  Level Jacksonville Center
Wed 07:20:14 AM 31.7247 -77.7686 195° South 449 517 38,000  Level Jacksonville Center
Wed 07:21:14 AM 31.6028 -77.7950 190° South 449 517 38,000  Level Jacksonville Center
Wed 07:22:14 AM 31.4808 -77.8261 192° South 449 517 38,000  Level Jacksonville Center
Wed 07:23:14 AM 31.3611 -77.8592 193° South 449 517 38,000  Level Jacksonville Center
Wed 07:24:14 AM 31.2386 -77.8803 188° South 449 517 38,000  Level Jacksonville Center
Wed 07:25:14 AM 31.1167 -77.9086 191° South 449 517 38,000  Level Jacksonville Center
Wed 07:26:14 AM 30.9969 -77.9467 195° South 449 517 38,000  Level Jacksonville Center
Wed 07:27:14 AM 30.8731 -77.9797 193° South 449 517 38,000  Level Jacksonville Center
Wed 07:28:14 AM 30.7556 -78.0147 194° South 449 517 38,000  Level Jacksonville Center
Wed 07:29:14 AM 30.6294 -78.0453 192° South 461 531 38,000  Level Jacksonville Center
Wed 07:30:55 AM 30.4208 -78.0992 193° South 437 503 38,000  Level Miami Center
Wed 07:31:55 AM 30.2956 -78.1217 189° South 443 510 38,000  Level Miami Center
Wed 07:32:55 AM 30.1725 -78.1394 187° South 458 527 38,000  Level Miami Center
Wed 07:33:55 AM 30.0389 -78.1594 187° South 472 543 38,000  Level Miami Center
Wed 07:34:55 AM 29.9178 -78.1772 187° South 478 550 38,000  Level Miami Center
Wed 07:35:55 AM 29.7925 -78.1997 189° South 473 544 38,000  Level Miami Center
Wed 07:36:55 AM 29.6692 -78.2194 188° South 461 531 38,000  Level Miami Center
Wed 07:37:55 AM 29.5439 -78.2394 188° South 461 531 38,000  Level Miami Center
Wed 07:38:55 AM 29.4186 -78.2594 188° South 456 525 38,000  Level Miami Center
Wed 07:39:55 AM 29.2994 -78.2817 189° South 449 517 38,000  Level Miami Center
Wed 07:40:55 AM 29.1761 -78.2967 186° South 449 517 38,000  Level Miami Center
Wed 07:41:55 AM 29.0508 -78.3164 188° South 449 517 38,000  Level Miami Center
Wed 07:42:55 AM 28.9211 -78.3361 188° South 449 517 38,000  Level Miami Center
Wed 07:43:55 AM 28.8042 -78.3581 189° South 443 510 38,000  Level Miami Center
Wed 07:44:55 AM 28.6786 -78.3756 187° South 449 517 38,000  Level Miami Center
Wed 07:45:55 AM 28.5553 -78.3950 188° South 449 517 38,000  Level Miami Center
Wed 07:47:07 AM 28.4342 -78.4122 187° South 444 511 38,000  Level Miami Center
Wed 07:48:07 AM 28.2836 -78.4336 187° South 450 518 38,000  Level Miami Center
Wed 07:49:07 AM 28.1706 -78.4558 190° South 434 499 38,000  Level Miami Center
Wed 07:50:07 AM 28.0453 -78.4728 187° South 434 499 38,000  Level Miami Center
Wed 07:51:07 AM 27.9239 -78.4922 188° South 443 510 38,000  Level Miami Center
Wed 07:52:07 AM 27.8067 -78.5094 187° South 443 510 38,000  Level Miami Center
Wed 07:53:07 AM 27.6875 -78.5264 187° South 443 510 38,000  Level Miami Center
Wed 07:54:07 AM 27.5619 -78.5481 189° South 443 510 38,000  Level Miami Center
Wed 07:55:07 AM 27.4406 -78.5650 187° South 449 517 38,000  Level Miami Center
Wed 07:56:07 AM 27.3236 -78.5842 188° South 449 517 38,000  Level Miami Center
Wed 07:57:07 AM 27.2042 -78.6036 188° South 444 511 38,000  Level Miami Center
Wed 07:58:07 AM 27.0850 -78.6181 186° South 444 511 38,000  Level Miami Center
Wed 07:59:07 AM 26.9594 -78.6394 189° South 449 517 38,000  Level Miami Center
Wed 08:00:07 AM 26.8444 -78.6517 185° South 437 503 38,000  Level Miami Center
Wed 08:01:07 AM 26.7417 -78.6711 190° South 443 510 38,000  Level Miami Center
Wed 08:02:07 AM 26.6119 -78.6878 187° South 443 510 38,000  Level Miami Center
Wed 08:03:07 AM 26.4906 -78.7067 188° South 448 516 38,000  Level Miami Center
Wed 08:04:07 AM 26.3692 -78.7233 187° South 448 516 38,000  Level Miami Center
Wed 08:05:07 AM 26.2519 -78.7422 188° South 442 509 38,000  Level Miami Center
Wed 08:06:07 AM 26.1306 -78.7589 187° South 442 509 38,000  Level Miami Center
Wed 08:07:07 AM 25.9967 -78.7778 187° South 442 509 38,000  Level Miami Center
Wed 08:08:07 AM 25.8753 -78.7964 188° South 447 514 38,000  Level Miami Center
Wed 08:09:07 AM 25.7558 -78.8131 187° South 447 514 38,000  Level Miami Center
Wed 08:10:07 AM 25.6303 -78.8342 189° South 447 514 38,000  Level Miami Center
Wed 08:11:07 AM 25.5089 -78.8506 187° South 442 509 38,000  Level Miami Center
Wed 08:12:07 AM 25.3833 -78.8714 189° South 454 522 38,000 350 Level Miami Center
Wed 08:13:07 AM 25.2600 -78.8739 181° South 454 522 38,700 500 Climbing Miami Center
Wed 08:14:07 AM 25.1303 -78.8719 179° South 454 522 39,000 150 Climbing Miami Center
Wed 08:15:07 AM 25.0031 -78.8675 178° South 459 528 39,000  Level Miami Center
Wed 08:16:07 AM 24.8733 -78.8653 179° South 459 528 39,000  Level Miami Center
Wed 08:17:07 AM 24.7481 -78.8633 179° South 459 528 39,000  Level Miami Center
Wed 08:18:07 AM 24.6164 -78.8589 178° South 459 528 39,000  Level Miami Center
Wed 08:19:07 AM 24.4911 -78.8592 180° South 459 528 39,000  Level Miami Center
Wed 08:20:07 AM 24.3636 -78.8572 179° South 459 528 39,000  Level Miami Center
Wed 08:21:07 AM 24.2361 -78.8550 179° South 459 528 39,000  Level Miami Center
Wed 08:22:07 AM 24.1047 -78.8508 178° South 466 536 39,000  Level Miami Center
Wed 08:24:00 AM 23.8858 -78.8471 179° South  Level FlightAware Approximate
Wed 08:31:00 AM 23.0722 -78.8266 179° South  Level FlightAware Approximate
Wed 08:32:00 AM 22.9560 -78.8237 179° South  Level FlightAware Approximate
Wed 08:33:00 AM 22.8397 -78.8208 179° South  Level FlightAware Approximate
Wed 08:34:00 AM 22.7235 -78.8179 179° South  Level FlightAware Approximate
Wed 08:35:00 AM 22.6073 -78.8150 179° South  Level FlightAware Approximate
Wed 08:36:00 AM 22.4910 -78.8121 179° South  Level FlightAware Approximate
Wed 08:37:00 AM 22.3748 -78.8093 179° South  Level FlightAware Approximate
Wed 08:38:00 AM 22.2586 -78.8064 179° South  Level FlightAware Approximate
Wed 08:39:00 AM 22.1423 -78.8035 179° South  Level FlightAware Approximate
Wed 08:40:00 AM 22.0261 -78.8006 179° South  Level FlightAware Approximate
Wed 08:41:00 AM 21.9100 -78.8060 184° South  Level FlightAware Approximate
Wed 08:42:00 AM 21.7940 -78.8138 184° South  Level FlightAware Approximate
Wed 08:43:00 AM 21.6780 -78.8216 184° South  Level FlightAware Approximate
Wed 08:44:00 AM 21.5619 -78.8293 184° South  Level FlightAware Approximate
Wed 08:45:00 AM 21.4459 -78.8371 184° South  Level FlightAware Approximate
Wed 08:46:00 AM 21.3298 -78.8448 184° South  Level FlightAware Approximate
Wed 08:47:00 AM 21.2138 -78.8525 184° South  Level FlightAware Approximate
Wed 08:48:00 AM 21.0978 -78.8602 184° South  Level FlightAware Approximate
Wed 08:49:00 AM 20.9817 -78.8675 182° South  Level FlightAware Approximate
Wed 08:50:00 AM 20.8656 -78.8728 182° South  Level FlightAware Approximate
Wed 08:51:00 AM 20.7494 -78.8781 182° South  Level FlightAware Approximate
Wed 08:52:00 AM 20.6332 -78.8833 184° South  Level FlightAware Approximate
Wed 08:53:00 AM 20.5173 -78.8920 184° South  Level FlightAware Approximate
Wed 08:54:00 AM 20.4013 -78.9006 184° South  Level FlightAware Approximate
Wed 08:55:00 AM 20.2853 -78.9091 184° South  Level FlightAware Approximate
Wed 08:56:00 AM 20.1693 -78.9167 180° South  Level FlightAware Approximate
Wed 08:57:00 AM 20.0536 -78.9244 189° South  Level FlightAware Approximate
Wed 08:58:00 AM 19.9526 -78.8912 150° Southeast  Level FlightAware Approximate
Wed 08:59:00 AM 19.8524 -78.8286 150° Southeast  Level FlightAware Approximate
Wed 09:00:00 AM 19.7552 -78.7608 146° Southeast  Level FlightAware Approximate
Wed 09:01:00 AM 19.6588 -78.6919 146° Southeast  Level FlightAware Approximate
Wed 09:02:00 AM 19.5613 -78.6246 148° Southeast  Level FlightAware Approximate
Wed 09:03:00 AM 19.4624 -78.5598 148° Southeast  Level FlightAware Approximate
Wed 09:04:00 AM 19.3634 -78.4951 148° Southeast  Level FlightAware Approximate
Wed 09:05:00 AM 19.2645 -78.4305 148° Southeast  Level FlightAware Approximate
Wed 09:06:00 AM 19.1655 -78.3659 148° Southeast  Level FlightAware Approximate
Wed 09:07:00 AM 19.0671 -78.3003 148° Southeast  Level FlightAware Approximate
Wed 09:08:00 AM 18.9682 -78.2358 149° Southeast  Level FlightAware Approximate
Wed 09:09:00 AM 18.8685 -78.1724 149° Southeast  Level FlightAware Approximate
Wed 09:10:00 AM 18.7721 -78.1040 145° Southeast  Level FlightAware Approximate
Wed 09:11:00 AM 18.6764 -78.0343 148° Southeast  Level FlightAware Approximate
Wed 09:12:00 AM 18.5753 -77.9768 159° South  Level FlightAware Approximate
Wed 09:13:00 AM 18.5037 -77.9134 90° East  Level Estimated
Wed 09:14:00 AM 18.5037 -77.9134 90° East  Level Estimated
Wed 09:15:00 AM 18.5037 -77.9134 90° East  Level Estimated
Wed 09:16:00 AM 18.5037 -77.9134 90° East  Level Estimated
Wed 09:17:00 AM 18.5037 -77.9134 90° East  Level Estimated
Wed 09:18:00 AM 18.5037 -77.9134 90° East  Level Estimated
Wed 09:19:00 AM 18.5037 -77.9134 90° East  Level Estimated
Wed 09:20:00 AM 18.5037 -77.9134 90° East  Level Estimated
Wed 09:21:00 AM 18.5037 -77.9134 90° East  Level Estimated
Wed 09:22:00 AM 18.5037 -77.9134 90° East  Level Estimated
Wed 09:23:00 AM 18.5037 -77.9134 90° East  Level Estimated
Wed 09:24:00 AM 18.5037 -77.9134 90° East  Level Estimated
Wed 09:25:00 AM 18.5037 -77.9134 90° East  Level Estimated

Login

Don't have an account? Register now (free) for customized features, flight alerts, and more!